Time;durP1;ratioP1;P1;durP2;ratioP2;P2;SDS_P1;SDS_P2;PMS_P1;PMS_P2;Temp;Humidity;BMP_temperature;BMP_pressure;BME280_temperature;BME280_humidity;BME280_pressure;Samples;Min_cycle;Max_cycle;Signal;HPM_P1;HPM_P2
2021/08/21 00:01:01;;;;;;;32.17;25.65;;;;;;;;;;1083128;47;20361;-89
2021/08/21 00:02:03;;;;;;;32.80;25.27;;;;;;;;;;1082961;54;20460;-88
2021/08/21 00:03:09;;;;;;;31.50;25.45;;;;;;;;;;1085610;54;20393;-90
2021/08/21 00:04:15;;;;;;;33.58;25.80;;;;;;;;;;1086794;47;20388;-90
2021/08/21 00:05:17;;;;;;;31.42;24.35;;;;;;;;;;1087619;54;20397;-88
2021/08/21 00:06:22;;;;;;;30.02;22.83;;;;;;;;;;1087383;47;20369;-90
2021/08/21 00:07:25;;;;;;;28.63;23.15;;;;;;;;;;1087793;46;20385;-89
2021/08/21 00:08:27;;;;;;;29.92;23.90;;;;;;;;;;1087909;47;20385;-87
2021/08/21 00:09:29;;;;;;;29.60;24.50;;;;;;;;;;1088417;39;20793;-88
2021/08/21 00:10:33;;;;;;;31.67;24.92;;;;;;;;;;1087809;46;20424;-88
2021/08/21 00:11:35;;;;;;;29.20;23.98;;;;;;;;;;1087908;47;20377;-87
2021/08/21 00:12:37;;;;;;;28.40;22.15;;;;;;;;;;1085318;54;20377;-86
2021/08/21 00:13:44;;;;;;;30.98;24.33;;;;;;;;;;1083646;54;20480;-86
2021/08/21 00:14:47;;;;;;;28.10;22.98;;;;;;;;;;1083068;54;20432;-87
2021/08/21 00:15:49;;;;;;;30.20;22.52;;;;;;;;;;1082911;47;20365;-87
2021/08/21 00:16:50;;;;;;;25.50;22.67;;;;;;;;;;1082914;47;20373;-87
2021/08/21 00:17:53;;;;;;;29.73;23.30;;;;;;;;;;1082770;47;20937;-88
2021/08/21 00:18:57;;;;;;;29.48;24.02;;;;;;;;;;1082635;54;20504;-87
2021/08/21 00:19:58;;;;;;;28.38;22.85;;;;;;;;;;1082607;47;20361;-86
2021/08/21 00:21:00;;;;;;;28.73;23.67;;;;;;;;;;1083076;47;20376;-87
2021/08/21 00:22:02;;;;;;;28.15;22.95;;;;;;;;;;1083276;54;20917;-87
2021/08/21 00:23:04;;;;;;;28.88;22.73;;;;;;;;;;1083502;46;20445;-87
2021/08/21 00:24:08;;;;;;;28.63;22.50;;;;;;;;;;1084576;47;20389;-88
2021/08/21 00:25:12;;;;;;;28.10;22.70;;;;;;;;;;1085294;47;20375;-88
2021/08/21 00:26:14;;;;;;;28.65;22.75;;;;;;;;;;1085785;47;20542;-87
2021/08/21 00:27:15;;;;;;;29.02;22.50;;;;;;;;;;1084795;39;20780;-87
2021/08/21 00:28:18;;;;;;;29.80;23.63;;;;;;;;;;1083902;54;20368;-89
2021/08/21 00:29:19;;;;;;;28.75;22.10;;;;;;;;;;1083721;54;20381;-86
2021/08/21 00:30:22;;;;;;;30.98;22.77;;;;;;;;;;1085119;54;20377;-86
2021/08/21 00:31:27;;;;;;;27.73;22.25;;;;;;;;;;1086035;54;20380;-89
2021/08/21 00:32:31;;;;;;;28.23;22.90;;;;;;;;;;1086083;54;20380;-89
2021/08/21 00:33:35;;;;;;;28.63;22.38;;;;;;;;;;1084293;54;20446;-86
2021/08/21 00:34:37;;;;;;;27.70;22.65;;;;;;;;;;1083594;54;20464;-87
2021/08/21 00:35:39;;;;;;;27.38;22.02;;;;;;;;;;1083133;54;20924;-86
2021/08/21 00:36:41;;;;;;;27.58;22.52;;;;;;;;;;1082669;47;20925;-86
2021/08/21 00:37:43;;;;;;;30.55;22.80;;;;;;;;;;1082354;54;20917;-87
2021/08/21 00:38:44;;;;;;;29.65;22.90;;;;;;;;;;1082511;54;20388;-88
2021/08/21 00:39:46;;;;;;;31.52;23.98;;;;;;;;;;1081435;54;20419;-86
2021/08/21 00:40:48;;;;;;;28.50;23.25;;;;;;;;;;1081981;54;20357;-85
2021/08/21 00:41:51;;;;;;;31.67;24.05;;;;;;;;;;1081966;47;20493;-86
2021/08/21 00:42:54;;;;;;;28.02;23.25;;;;;;;;;;1082816;47;20369;-87
2021/08/21 00:43:56;;;;;;;33.80;24.05;;;;;;;;;;1083543;39;20765;-86
2021/08/21 00:44:57;;;;;;;32.70;23.88;;;;;;;;;;1082281;47;20806;-87
2021/08/21 00:46:00;;;;;;;28.38;23.27;;;;;;;;;;1083038;39;21049;-87
2021/08/21 00:47:12;;;;;;;29.65;23.67;;;;;;;;;;1081740;47;20403;-87
2021/08/21 00:48:15;;;;;;;27.73;22.80;;;;;;;;;;1084162;47;20374;-90
2021/08/21 00:49:17;;;;;;;32.22;23.98;;;;;;;;;;1084656;47;20408;-90
2021/08/21 00:50:19;;;;;;;34.17;24.38;;;;;;;;;;1084489;47;20377;-86
2021/08/21 00:51:21;;;;;;;29.27;23.50;;;;;;;;;;1083282;51;20373;-87
2021/08/21 00:52:31;;;;;;;31.55;23.70;;;;;;;;;;1082730;54;21033;-88
2021/08/21 00:53:33;;;;;;;32.83;24.45;;;;;;;;;;1083254;47;20388;-87
2021/08/21 00:54:35;;;;;;;30.00;24.48;;;;;;;;;;1082938;54;20407;-86
2021/08/21 00:55:38;;;;;;;31.15;23.80;;;;;;;;;;1082875;46;20374;-89
2021/08/21 00:56:41;;;;;;;30.05;24.00;;;;;;;;;;1081959;47;20408;-88
2021/08/21 00:57:43;;;;;;;34.28;24.35;;;;;;;;;;1083076;54;20365;-87
2021/08/21 00:58:45;;;;;;;29.58;23.40;;;;;;;;;;1082787;47;20460;-86
2021/08/21 00:59:56;;;;;;;30.98;24.25;;;;;;;;;;1082874;47;20425;-87
2021/08/21 01:01:06;;;;;;;35.85;25.17;;;;;;;;;;1083231;54;20373;-89
2021/08/21 01:02:10;;;;;;;32.95;23.92;;;;;;;;;;1084098;54;20399;-89
2021/08/21 01:03:12;;;;;;;34.35;26.17;;;;;;;;;;1085391;54;20377;-88
2021/08/21 01:04:14;;;;;;;31.88;23.70;;;;;;;;;;1085236;47;20473;-87
2021/08/21 01:05:16;;;;;;;30.45;22.95;;;;;;;;;;1085755;54;20403;-86
2021/08/21 01:06:18;;;;;;;28.27;24.20;;;;;;;;;;1084882;51;20395;-86
2021/08/21 01:07:26;;;;;;;32.28;22.92;;;;;;;;;;1082775;39;21057;-86
2021/08/21 01:08:31;;;;;;;30.55;23.17;;;;;;;;;;1082597;54;20396;-87
2021/08/21 01:09:39;;;;;;;29.52;23.20;;;;;;;;;;1082263;47;20408;-87
2021/08/21 01:10:41;;;;;;;27.25;22.40;;;;;;;;;;1082623;47;20404;-87
2021/08/21 01:11:44;;;;;;;30.15;23.23;;;;;;;;;;1083076;54;20388;-86
2021/08/21 01:12:51;;;;;;;32.55;24.25;;;;;;;;;;1082963;47;20489;-87
2021/08/21 01:13:56;;;;;;;30.63;24.77;;;;;;;;;;1082196;47;20437;-87
2021/08/21 01:14:58;;;;;;;32.50;24.98;;;;;;;;;;1082403;54;20373;-87
2021/08/21 01:16:00;;;;;;;32.15;24.65;;;;;;;;;;1082217;47;20926;-87
2021/08/21 01:17:04;;;;;;;36.13;25.73;;;;;;;;;;1082345;47;20377;-89
2021/08/21 01:18:12;;;;;;;34.05;25.65;;;;;;;;;;1082834;39;20753;-88
2021/08/21 01:19:18;;;;;;;42.42;27.88;;;;;;;;;;1082173;47;20407;-87
2021/08/21 01:20:20;;;;;;;34.50;25.23;;;;;;;;;;1081975;54;20385;-87
2021/08/21 01:21:22;;;;;;;35.72;25.85;;;;;;;;;;1082672;39;20643;-87
2021/08/21 01:22:26;;;;;;;31.35;24.40;;;;;;;;;;1082313;47;20373;-87
2021/08/21 01:23:28;;;;;;;37.83;26.23;;;;;;;;;;1082589;47;20435;-87
2021/08/21 01:24:31;;;;;;;35.40;26.65;;;;;;;;;;1082186;54;20465;-86
2021/08/21 01:25:33;;;;;;;35.20;25.53;;;;;;;;;;1081586;47;20373;-87
2021/08/21 01:26:35;;;;;;;35.38;25.70;;;;;;;;;;1082164;54;20370;-87
2021/08/21 01:27:37;;;;;;;33.83;24.13;;;;;;;;;;1082376;39;21181;-88
2021/08/21 01:28:39;;;;;;;29.52;22.92;;;;;;;;;;1082325;47;20381;-87
2021/08/21 01:29:41;;;;;;;30.23;22.67;;;;;;;;;;1082402;39;20746;-87
2021/08/21 01:30:44;;;;;;;29.45;23.60;;;;;;;;;;1082343;39;20869;-87
2021/08/21 01:31:48;;;;;;;34.28;25.17;;;;;;;;;;1082023;47;20377;-88
2021/08/21 01:32:50;;;;;;;30.48;23.30;;;;;;;;;;1082648;39;20745;-88
2021/08/21 01:33:53;;;;;;;31.40;23.45;;;;;;;;;;1082041;54;20381;-86
2021/08/21 01:34:59;;;;;;;30.25;24.27;;;;;;;;;;1082170;47;20464;-86
2021/08/21 01:36:02;;;;;;;30.27;23.63;;;;;;;;;;1081609;54;20465;-87
2021/08/21 01:37:04;;;;;;;34.33;25.02;;;;;;;;;;1082179;47;20361;-89
2021/08/21 01:38:07;;;;;;;34.47;25.20;;;;;;;;;;1082381;54;20381;-87
2021/08/21 01:39:09;;;;;;;32.28;24.17;;;;;;;;;;1082279;47;20392;-89
2021/08/21 01:40:11;;;;;;;32.05;23.75;;;;;;;;;;1082256;54;20393;-88
2021/08/21 01:41:13;;;;;;;34.28;23.58;;;;;;;;;;1081934;47;20460;-87
2021/08/21 01:42:15;;;;;;;30.92;23.08;;;;;;;;;;1082072;54;20377;-87
2021/08/21 01:43:21;;;;;;;32.03;23.88;;;;;;;;;;1081875;47;20361;-86
2021/08/21 01:44:24;;;;;;;34.55;24.20;;;;;;;;;;1082149;39;20608;-86
2021/08/21 01:45:25;;;;;;;33.35;23.42;;;;;;;;;;1081808;54;20365;-90
2021/08/21 01:46:36;;;;;;;29.40;22.92;;;;;;;;;;1081750;47;20368;-86
2021/08/21 01:47:38;;;;;;;30.73;22.98;;;;;;;;;;1082040;47;20404;-87
2021/08/21 01:48:41;;;;;;;33.22;24.38;;;;;;;;;;1082454;39;21100;-88
2021/08/21 01:49:49;;;;;;;33.30;23.55;;;;;;;;;;1082492;47;20411;-87
2021/08/21 01:50:51;;;;;;;30.63;22.52;;;;;;;;;;1082618;31;20946;-88
2021/08/21 01:51:53;;;;;;;38.33;25.88;;;;;;;;;;1081814;47;20375;-87
2021/08/21 01:52:55;;;;;;;36.80;25.25;;;;;;;;;;1081880;47;20362;-88
2021/08/21 01:53:57;;;;;;;32.03;24.17;;;;;;;;;;1082603;54;20404;-87
2021/08/21 01:54:59;;;;;;;31.38;23.17;;;;;;;;;;1082253;47;20369;-86
2021/08/21 01:56:01;;;;;;;34.65;23.50;;;;;;;;;;1082162;47;20393;-89
2021/08/21 01:57:06;;;;;;;31.20;23.40;;;;;;;;;;1082101;54;20405;-87
2021/08/21 01:58:11;;;;;;;36.60;24.58;;;;;;;;;;1082062;54;20394;-87
2021/08/21 01:59:26;;;;;;;34.80;24.05;;;;;;;;;;1082365;39;20846;-86
2021/08/21 02:00:28;;;;;;;33.85;24.75;;;;;;;;;;1082588;54;20385;-87
2021/08/21 02:01:31;;;;;;;34.22;23.48;;;;;;;;;;1082381;47;20380;-87
2021/08/21 02:02:33;;;;;;;32.45;23.17;;;;;;;;;;1082331;47;20384;-88
2021/08/21 02:03:35;;;;;;;34.63;24.65;;;;;;;;;;1081751;54;20913;-86
2021/08/21 02:04:38;;;;;;;33.65;24.45;;;;;;;;;;1083089;47;20488;-87
2021/08/21 02:05:40;;;;;;;33.55;24.05;;;;;;;;;;1083364;54;20378;-86
2021/08/21 02:06:42;;;;;;;37.22;24.45;;;;;;;;;;1083565;54;20408;-88
2021/08/21 02:07:44;;;;;;;30.92;22.00;;;;;;;;;;1086869;47;20385;-87
2021/08/21 02:08:45;;;;;;;30.52;23.17;;;;;;;;;;1087061;54;20386;-89
2021/08/21 02:09:47;;;;;;;32.42;22.52;;;;;;;;;;1089549;31;20820;-89
2021/08/21 02:10:49;;;;;;;31.02;23.85;;;;;;;;;;1085758;47;20372;-85
2021/08/21 02:11:52;;;;;;;34.95;23.70;;;;;;;;;;1085305;47;20365;-86
2021/08/21 02:12:55;;;;;;;34.70;24.00;;;;;;;;;;1086725;47;20384;-88
2021/08/21 02:13:57;;;;;;;32.77;23.03;;;;;;;;;;1088166;47;20949;-87
2021/08/21 02:15:07;;;;;;;36.10;24.33;;;;;;;;;;1088361;47;20393;-88
2021/08/21 02:16:08;;;;;;;32.90;23.98;;;;;;;;;;1088087;54;20386;-89
2021/08/21 02:17:10;;;;;;;36.72;23.08;;;;;;;;;;1086994;54;20397;-86
2021/08/21 02:18:12;;;;;;;30.05;22.83;;;;;;;;;;1086035;46;20369;-87
2021/08/21 02:19:14;;;;;;;34.10;24.00;;;;;;;;;;1085915;47;20408;-86
2021/08/21 02:20:16;;;;;;;30.98;23.75;;;;;;;;;;1085365;47;20378;-86
2021/08/21 02:21:19;;;;;;;32.85;24.17;;;;;;;;;;1083630;54;20374;-86
2021/08/21 02:22:21;;;;;;;28.70;22.88;;;;;;;;;;1083780;39;20753;-87
2021/08/21 02:23:25;;;;;;;35.63;25.23;;;;;;;;;;1082699;47;20444;-85
2021/08/21 02:24:27;;;;;;;36.63;24.70;;;;;;;;;;1082523;54;20373;-87
2021/08/21 02:25:31;;;;;;;34.63;24.42;;;;;;;;;;1082530;47;20396;-85
2021/08/21 02:26:39;;;;;;;38.05;24.80;;;;;;;;;;1082554;47;20381;-87
2021/08/21 02:27:55;;;;;;;34.47;24.10;;;;;;;;;;1082405;47;20385;-87
2021/08/21 02:28:57;;;;;;;33.30;24.88;;;;;;;;;;1082393;54;20385;-86
2021/08/21 02:29:59;;;;;;;33.13;25.02;;;;;;;;;;1081856;54;20369;-88
2021/08/21 02:31:01;;;;;;;32.72;24.20;;;;;;;;;;1082363;54;20397;-87
2021/08/21 02:32:07;;;;;;;35.35;24.27;;;;;;;;;;1082372;54;20388;-88
2021/08/21 02:33:08;;;;;;;32.42;23.70;;;;;;;;;;1082862;39;21204;-86
2021/08/21 02:34:10;;;;;;;38.63;25.65;;;;;;;;;;1082510;47;20356;-87
2021/08/21 02:35:12;;;;;;;36.05;25.50;;;;;;;;;;1082597;54;20400;-86
2021/08/21 02:36:15;;;;;;;34.67;24.13;;;;;;;;;;1085538;39;21118;-86
2021/08/21 02:37:19;;;;;;;35.45;24.10;;;;;;;;;;1086481;54;20410;-89
2021/08/21 02:38:22;;;;;;;41.15;27.50;;;;;;;;;;1087338;46;20369;-91
2021/08/21 02:39:24;;;;;;;33.92;23.25;;;;;;;;;;1087449;47;20404;-89
2021/08/21 02:40:26;;;;;;;38.80;25.75;;;;;;;;;;1087102;54;20370;-88
2021/08/21 02:41:28;;;;;;;36.47;25.40;;;;;;;;;;1087552;54;20366;-88
2021/08/21 02:42:30;;;;;;;35.72;25.10;;;;;;;;;;1087627;47;20386;-86
2021/08/21 02:43:32;;;;;;;37.57;24.77;;;;;;;;;;1087875;54;20469;-88
2021/08/21 02:44:34;;;;;;;36.75;25.92;;;;;;;;;;1087572;47;20396;-87
2021/08/21 02:45:35;;;;;;;38.72;25.52;;;;;;;;;;1085879;54;20366;-86
2021/08/21 02:46:38;;;;;;;36.35;25.55;;;;;;;;;;1083602;47;20358;-86
2021/08/21 02:47:41;;;;;;;33.65;24.98;;;;;;;;;;1082900;47;20415;-87
2021/08/21 02:48:43;;;;;;;39.83;26.55;;;;;;;;;;1082423;47;20465;-87
2021/08/21 02:49:45;;;;;;;37.40;26.77;;;;;;;;;;1082544;47;20377;-86
2021/08/21 02:50:46;;;;;;;40.15;26.42;;;;;;;;;;1082474;54;20361;-87
2021/08/21 02:51:48;;;;;;;40.35;28.00;;;;;;;;;;1082699;39;20761;-87
2021/08/21 02:52:50;;;;;;;36.75;25.63;;;;;;;;;;1082581;54;20393;-86
2021/08/21 02:53:52;;;;;;;37.95;25.98;;;;;;;;;;1082339;47;20357;-86
2021/08/21 02:54:53;;;;;;;37.70;25.38;;;;;;;;;;1082229;47;20381;-86
2021/08/21 02:55:56;;;;;;;35.35;24.95;;;;;;;;;;1082484;54;20373;-87
2021/08/21 02:56:57;;;;;;;40.97;26.58;;;;;;;;;;1082526;46;20372;-86
2021/08/21 02:57:59;;;;;;;40.97;27.00;;;;;;;;;;1082915;47;20365;-86
2021/08/21 02:59:01;;;;;;;39.58;27.27;;;;;;;;;;1082757;54;20369;-87
2021/08/21 03:00:03;;;;;;;38.60;25.58;;;;;;;;;;1082604;47;20377;-88
2021/08/21 03:01:05;;;;;;;39.80;26.52;;;;;;;;;;1082752;54;20381;-88
2021/08/21 03:02:07;;;;;;;42.72;28.27;;;;;;;;;;1083077;39;21232;-88
2021/08/21 03:03:09;;;;;;;41.40;27.10;;;;;;;;;;1082612;54;20392;-86
2021/08/21 03:04:19;;;;;;;46.05;27.75;;;;;;;;;;1082458;47;20365;-86
2021/08/21 03:05:20;;;;;;;38.70;26.42;;;;;;;;;;1082122;47;20385;-86
2021/08/21 03:06:23;;;;;;;38.28;26.63;;;;;;;;;;1082686;54;20407;-87
2021/08/21 03:07:25;;;;;;;38.20;27.33;;;;;;;;;;1082690;47;20400;-86
2021/08/21 03:08:27;;;;;;;45.72;28.65;;;;;;;;;;1082917;54;20485;-87
2021/08/21 03:09:29;;;;;;;38.30;25.80;;;;;;;;;;1083131;46;20365;-86
2021/08/21 03:10:31;;;;;;;37.58;26.98;;;;;;;;;;1084114;54;20477;-87
2021/08/21 03:11:33;;;;;;;33.90;25.55;;;;;;;;;;1085435;54;20372;-90
2021/08/21 03:12:35;;;;;;;37.78;26.52;;;;;;;;;;1085381;47;20374;-86
2021/08/21 03:13:40;;;;;;;42.45;28.55;;;;;;;;;;1085011;54;20480;-88
2021/08/21 03:14:42;;;;;;;37.40;25.50;;;;;;;;;;1084431;47;20381;-88
2021/08/21 03:15:45;;;;;;;37.88;25.95;;;;;;;;;;1084010;54;20442;-85
2021/08/21 03:16:47;;;;;;;37.75;26.00;;;;;;;;;;1084848;47;20445;-86
2021/08/21 03:17:48;;;;;;;37.75;25.40;;;;;;;;;;1086148;47;20350;-89
2021/08/21 03:18:51;;;;;;;37.72;25.88;;;;;;;;;;1085601;47;20353;-87
2021/08/21 03:19:52;;;;;;;33.97;24.90;;;;;;;;;;1084702;47;20417;-87
2021/08/21 03:20:54;;;;;;;39.40;25.27;;;;;;;;;;1084280;47;20376;-86
2021/08/21 03:21:56;;;;;;;39.83;25.75;;;;;;;;;;1084203;54;20369;-86
2021/08/21 03:22:58;;;;;;;38.30;25.85;;;;;;;;;;1083396;54;20472;-86
2021/08/21 03:24:00;;;;;;;41.58;27.38;;;;;;;;;;1082928;46;20370;-86
2021/08/21 03:25:02;;;;;;;43.92;27.30;;;;;;;;;;1082040;47;20933;-86
2021/08/21 03:26:03;;;;;;;40.63;27.23;;;;;;;;;;1082236;47;20403;-85
2021/08/21 03:27:05;;;;;;;37.22;26.08;;;;;;;;;;1082389;47;20397;-86
2021/08/21 03:28:07;;;;;;;35.97;26.00;;;;;;;;;;1082763;39;20756;-86
2021/08/21 03:29:09;;;;;;;36.40;25.58;;;;;;;;;;1082088;47;20937;-86
2021/08/21 03:30:11;;;;;;;37.45;25.05;;;;;;;;;;1081924;47;20353;-87
2021/08/21 03:31:13;;;;;;;36.90;24.38;;;;;;;;;;1082160;47;20484;-86
2021/08/21 03:32:16;;;;;;;35.38;23.73;;;;;;;;;;1081813;54;20505;-87
2021/08/21 03:33:18;;;;;;;36.05;24.75;;;;;;;;;;1082122;47;20460;-86
2021/08/21 03:34:22;;;;;;;34.50;24.60;;;;;;;;;;1082399;54;20389;-86
2021/08/21 03:35:24;;;;;;;37.20;24.63;;;;;;;;;;1082123;39;20797;-86
2021/08/21 03:36:28;;;;;;;35.80;23.65;;;;;;;;;;1082162;54;20378;-88
2021/08/21 03:37:30;;;;;;;36.92;24.25;;;;;;;;;;1081977;47;20393;-87
2021/08/21 03:38:32;;;;;;;35.17;24.65;;;;;;;;;;1082196;47;20377;-86
2021/08/21 03:39:34;;;;;;;37.63;24.90;;;;;;;;;;1081931;47;20391;-87
2021/08/21 03:40:35;;;;;;;38.35;25.10;;;;;;;;;;1081108;54;20378;-86
2021/08/21 03:41:37;;;;;;;35.55;25.05;;;;;;;;;;1082010;47;20367;-86
2021/08/21 03:42:39;;;;;;;39.90;26.85;;;;;;;;;;1082253;54;20924;-87
2021/08/21 03:43:41;;;;;;;38.38;26.30;;;;;;;;;;1081524;54;20377;-86
2021/08/21 03:44:43;;;;;;;40.92;26.90;;;;;;;;;;1081694;39;21110;-87
2021/08/21 03:45:44;;;;;;;37.45;26.60;;;;;;;;;;1082109;47;20385;-87
2021/08/21 03:46:49;;;;;;;37.00;24.73;;;;;;;;;;1082712;54;20377;-86
2021/08/21 03:47:51;;;;;;;40.67;26.42;;;;;;;;;;1082131;47;20368;-86
2021/08/21 03:48:53;;;;;;;34.60;23.60;;;;;;;;;;1081795;47;20400;-87
2021/08/21 03:49:56;;;;;;;34.78;23.58;;;;;;;;;;1081596;54;20996;-86
2021/08/21 03:50:58;;;;;;;34.17;22.87;;;;;;;;;;1081693;54;20464;-86
2021/08/21 03:52:03;;;;;;;32.53;23.35;;;;;;;;;;1082043;47;20374;-86
2021/08/21 03:53:04;;;;;;;33.58;24.27;;;;;;;;;;1081790;47;20408;-89
2021/08/21 03:54:06;;;;;;;37.42;24.00;;;;;;;;;;1081575;46;20385;-88
2021/08/21 03:55:09;;;;;;;34.00;23.80;;;;;;;;;;1081696;54;20461;-86
2021/08/21 03:56:10;;;;;;;42.88;26.00;;;;;;;;;;1081597;54;20472;-86
2021/08/21 03:57:13;;;;;;;39.80;26.23;;;;;;;;;;1081964;54;20999;-86
2021/08/21 03:58:18;;;;;;;38.10;25.05;;;;;;;;;;1081614;54;20367;-88
2021/08/21 03:59:20;;;;;;;43.85;27.85;;;;;;;;;;1081722;47;20385;-89
2021/08/21 04:00:22;;;;;;;41.00;26.13;;;;;;;;;;1081357;47;20362;-86
2021/08/21 04:01:24;;;;;;;36.65;25.95;;;;;;;;;;1082145;54;20370;-88
2021/08/21 04:02:27;;;;;;;38.55;25.50;;;;;;;;;;1082091;54;20373;-87
2021/08/21 04:03:29;;;;;;;38.97;25.50;;;;;;;;;;1082218;39;20829;-86
2021/08/21 04:04:33;;;;;;;35.90;24.42;;;;;;;;;;1082475;39;20797;-86
2021/08/21 04:05:34;;;;;;;37.20;24.92;;;;;;;;;;1081524;47;20377;-89
2021/08/21 04:06:38;;;;;;;35.47;25.13;;;;;;;;;;1082027;54;20404;-86
2021/08/21 04:07:42;;;;;;;35.42;24.67;;;;;;;;;;1081770;47;20375;-86
2021/08/21 04:08:44;;;;;;;41.58;25.90;;;;;;;;;;1081879;46;20477;-87
2021/08/21 04:09:47;;;;;;;35.85;25.27;;;;;;;;;;1081923;47;20378;-87
2021/08/21 04:10:48;;;;;;;35.40;24.20;;;;;;;;;;1082089;47;20392;-87
2021/08/21 04:11:52;;;;;;;35.80;24.80;;;;;;;;;;1082730;54;20400;-88
2021/08/21 04:12:54;;;;;;;37.28;25.17;;;;;;;;;;1083239;47;20396;-86
2021/08/21 04:13:55;;;;;;;38.80;25.80;;;;;;;;;;1082004;54;20388;-86
2021/08/21 04:14:57;;;;;;;39.42;25.77;;;;;;;;;;1082414;39;20850;-88
2021/08/21 04:15:59;;;;;;;40.92;26.33;;;;;;;;;;1081664;47;20404;-86
2021/08/21 04:17:01;;;;;;;36.95;25.83;;;;;;;;;;1082256;47;20369;-87
2021/08/21 04:18:03;;;;;;;38.25;25.48;;;;;;;;;;1082288;47;20358;-87
2021/08/21 04:19:05;;;;;;;44.75;27.55;;;;;;;;;;1082379;47;20456;-90
2021/08/21 04:20:07;;;;;;;37.47;25.70;;;;;;;;;;1082227;54;20431;-89
2021/08/21 04:21:12;;;;;;;48.90;27.58;;;;;;;;;;1081536;54;20373;-87
2021/08/21 04:22:13;;;;;;;37.53;26.60;;;;;;;;;;1082228;54;20412;-86
2021/08/21 04:23:15;;;;;;;41.55;26.70;;;;;;;;;;1082004;47;20385;-87
2021/08/21 04:24:17;;;;;;;42.55;27.40;;;;;;;;;;1082156;54;20380;-88
2021/08/21 04:25:19;;;;;;;42.78;26.55;;;;;;;;;;1081721;54;20377;-87
2021/08/21 04:26:21;;;;;;;44.70;27.70;;;;;;;;;;1082163;54;20381;-86
2021/08/21 04:27:23;;;;;;;43.13;27.85;;;;;;;;;;1082037;54;20385;-87
2021/08/21 04:28:29;;;;;;;43.15;26.95;;;;;;;;;;1082006;47;20373;-87
2021/08/21 04:29:30;;;;;;;42.20;26.63;;;;;;;;;;1082405;46;20380;-87
2021/08/21 04:30:32;;;;;;;39.05;25.15;;;;;;;;;;1082464;47;20388;-87
2021/08/21 04:31:35;;;;;;;42.40;27.85;;;;;;;;;;1082192;54;20508;-87
2021/08/21 04:32:37;;;;;;;39.58;25.98;;;;;;;;;;1082431;47;20389;-87
2021/08/21 04:33:39;;;;;;;37.13;24.83;;;;;;;;;;1083029;54;21122;-86
2021/08/21 04:34:40;;;;;;;37.05;24.95;;;;;;;;;;1082536;47;20381;-87
2021/08/21 04:35:42;;;;;;;38.65;25.02;;;;;;;;;;1082388;47;20484;-86
2021/08/21 04:36:44;;;;;;;32.90;23.33;;;;;;;;;;1082428;54;20374;-87
2021/08/21 04:37:46;;;;;;;35.53;24.88;;;;;;;;;;1082504;54;20368;-87
2021/08/21 04:38:48;;;;;;;42.97;25.73;;;;;;;;;;1082923;47;20369;-86
2021/08/21 04:39:50;;;;;;;41.10;27.30;;;;;;;;;;1083098;39;20757;-86
2021/08/21 04:40:51;;;;;;;38.85;26.45;;;;;;;;;;1082438;39;20801;-88
2021/08/21 04:41:53;;;;;;;39.15;26.52;;;;;;;;;;1082524;39;20869;-87
2021/08/21 04:42:57;;;;;;;39.67;26.75;;;;;;;;;;1083065;54;20412;-89
2021/08/21 04:43:58;;;;;;;41.47;25.73;;;;;;;;;;1082662;54;20477;-88
2021/08/21 04:45:00;;;;;;;38.40;25.73;;;;;;;;;;1082244;47;20388;-87
2021/08/21 04:46:02;;;;;;;42.08;27.23;;;;;;;;;;1083002;47;20877;-86
2021/08/21 04:47:04;;;;;;;45.78;27.70;;;;;;;;;;1089862;39;20891;-89
2021/08/21 04:48:06;;;;;;;40.85;26.38;;;;;;;;;;1086685;47;20365;-88
2021/08/21 04:49:09;;;;;;;41.05;25.58;;;;;;;;;;1087007;54;20409;-88
2021/08/21 04:50:11;;;;;;;38.20;26.52;;;;;;;;;;1085077;46;20414;-85
2021/08/21 04:51:13;;;;;;;46.75;28.15;;;;;;;;;;1085872;39;21083;-85
2021/08/21 04:52:15;;;;;;;42.50;27.65;;;;;;;;;;1085981;54;20353;-86
2021/08/21 04:53:16;;;;;;;45.33;28.50;;;;;;;;;;1087942;54;20393;-85
2021/08/21 04:54:18;;;;;;;43.65;27.88;;;;;;;;;;1087826;54;20350;-85
2021/08/21 04:55:20;;;;;;;48.92;29.63;;;;;;;;;;1087737;47;20380;-85
2021/08/21 04:56:22;;;;;;;44.13;27.90;;;;;;;;;;1085699;54;20365;-84
2021/08/21 04:57:24;;;;;;;46.30;29.52;;;;;;;;;;1084258;54;20480;-84
2021/08/21 04:58:25;;;;;;;43.47;29.05;;;;;;;;;;1084262;46;20525;-84
2021/08/21 04:59:27;;;;;;;43.60;28.38;;;;;;;;;;1083674;54;20389;-83
2021/08/21 05:00:29;;;;;;;49.70;29.95;;;;;;;;;;1082732;47;20499;-85
2021/08/21 05:01:31;;;;;;;48.75;29.52;;;;;;;;;;1082862;47;20373;-85
2021/08/21 05:02:33;;;;;;;50.90;30.40;;;;;;;;;;1082352;47;20469;-85
2021/08/21 05:03:35;;;;;;;46.88;28.85;;;;;;;;;;1082278;47;20369;-85
2021/08/21 05:04:41;;;;;;;56.13;31.77;;;;;;;;;;1082210;54;20369;-85
2021/08/21 05:05:44;;;;;;;52.53;30.52;;;;;;;;;;1082251;47;20480;-85
2021/08/21 05:06:45;;;;;;;52.50;32.80;;;;;;;;;;1082558;54;20396;-85
2021/08/21 05:07:47;;;;;;;49.47;31.02;;;;;;;;;;1082448;47;20457;-86
2021/08/21 05:08:50;;;;;;;43.65;29.65;;;;;;;;;;1082393;47;20408;-85
2021/08/21 05:09:51;;;;;;;48.90;29.88;;;;;;;;;;1085982;54;20412;-86
2021/08/21 05:10:53;;;;;;;55.67;31.08;;;;;;;;;;1086726;47;20374;-87
2021/08/21 05:11:55;;;;;;;50.42;31.90;;;;;;;;;;1087056;47;20365;-86
2021/08/21 05:12:57;;;;;;;50.53;31.90;;;;;;;;;;1087057;54;20415;-87
2021/08/21 05:13:58;;;;;;;55.65;32.75;;;;;;;;;;1087193;54;20370;-85
2021/08/21 05:15:00;;;;;;;46.17;30.70;;;;;;;;;;1087364;54;20381;-85
2021/08/21 05:16:02;;;;;;;51.95;32.65;;;;;;;;;;1086926;47;20377;-85
2021/08/21 05:17:05;;;;;;;50.78;32.60;;;;;;;;;;1087151;54;20371;-86
2021/08/21 05:18:08;;;;;;;52.67;32.00;;;;;;;;;;1085960;54;20369;-85
2021/08/21 05:19:23;;;;;;;52.97;31.95;;;;;;;;;;1082826;54;20440;-85
2021/08/21 05:20:42;;;;;;;50.28;32.17;;;;;;;;;;1082656;39;20649;-85
2021/08/21 05:21:48;;;;;;;50.63;32.40;;;;;;;;;;1081771;54;20392;-85
2021/08/21 05:23:03;;;;;;;48.85;29.60;;;;;;;;;;1082113;39;21128;-85
2021/08/21 05:24:05;;;;;;;49.65;31.85;;;;;;;;;;1081899;54;20369;-84
2021/08/21 05:25:07;;;;;;;51.72;30.95;;;;;;;;;;1082010;54;21331;-84
2021/08/21 05:26:13;;;;;;;49.45;30.80;;;;;;;;;;1081876;47;20361;-85
2021/08/21 05:27:17;;;;;;;53.67;33.47;;;;;;;;;;1081481;54;20418;-85
2021/08/21 05:28:18;;;;;;;56.60;34.15;;;;;;;;;;1081482;54;20373;-85
2021/08/21 05:29:20;;;;;;;62.08;34.70;;;;;;;;;;1081217;47;20377;-84
2021/08/21 05:30:27;;;;;;;54.70;33.33;;;;;;;;;;1081694;47;20378;-85
2021/08/21 05:31:29;;;;;;;61.90;35.10;;;;;;;;;;1081399;47;20412;-85
2021/08/21 05:32:31;;;;;;;55.95;33.97;;;;;;;;;;1081642;47;20365;-85
2021/08/21 05:33:33;;;;;;;53.92;34.22;;;;;;;;;;1081560;54;20393;-85
2021/08/21 05:34:35;;;;;;;48.75;32.25;;;;;;;;;;1081293;54;20400;-86
2021/08/21 05:35:37;;;;;;;55.80;33.03;;;;;;;;;;1081746;54;20385;-85
2021/08/21 05:36:39;;;;;;;53.28;32.85;;;;;;;;;;1081533;47;20369;-86
2021/08/21 05:37:41;;;;;;;51.95;32.85;;;;;;;;;;1081600;46;20405;-86
2021/08/21 05:38:42;;;;;;;51.47;33.38;;;;;;;;;;1081699;47;20365;-85
2021/08/21 05:39:44;;;;;;;53.50;34.10;;;;;;;;;;1082031;54;20434;-85
2021/08/21 05:40:46;;;;;;;53.42;34.80;;;;;;;;;;1082022;54;20377;-85
2021/08/21 05:41:47;;;;;;;49.40;33.70;;;;;;;;;;1081945;54;20369;-86
2021/08/21 05:42:49;;;;;;;52.17;32.50;;;;;;;;;;1081629;54;20365;-85
2021/08/21 05:43:51;;;;;;;52.00;33.22;;;;;;;;;;1081394;54;20365;-86
2021/08/21 05:44:53;;;;;;;53.45;33.92;;;;;;;;;;1082432;47;20401;-85
2021/08/21 05:45:54;;;;;;;54.23;34.83;;;;;;;;;;1084278;39;20828;-87
2021/08/21 05:46:56;;;;;;;49.50;32.50;;;;;;;;;;1083224;47;20361;-86
2021/08/21 05:47:58;;;;;;;50.28;33.65;;;;;;;;;;1082763;54;20420;-86
2021/08/21 05:49:00;;;;;;;54.30;33.42;;;;;;;;;;1084170;54;20369;-85
2021/08/21 05:50:02;;;;;;;54.28;34.53;;;;;;;;;;1083747;47;20458;-85
2021/08/21 05:51:04;;;;;;;49.40;33.70;;;;;;;;;;1083579;54;20388;-85
2021/08/21 05:52:05;;;;;;;50.88;33.10;;;;;;;;;;1084046;47;20413;-87
2021/08/21 05:53:07;;;;;;;51.42;33.08;;;;;;;;;;1083643;47;20374;-87
2021/08/21 05:54:09;;;;;;;52.83;33.03;;;;;;;;;;1083691;47;20488;-87
2021/08/21 05:55:10;;;;;;;51.75;33.47;;;;;;;;;;1084559;47;20377;-86
2021/08/21 05:56:12;;;;;;;49.75;33.72;;;;;;;;;;1085330;54;20413;-85
2021/08/21 05:57:14;;;;;;;51.47;32.92;;;;;;;;;;1085421;54;20377;-85
2021/08/21 05:58:16;;;;;;;51.08;33.38;;;;;;;;;;1085422;54;20369;-85
2021/08/21 05:59:17;;;;;;;53.00;33.33;;;;;;;;;;1085179;47;20396;-85
2021/08/21 06:00:19;;;;;;;49.28;33.67;;;;;;;;;;1084969;54;20443;-85
2021/08/21 06:01:22;;;;;;;50.38;32.92;;;;;;;;;;1084651;47;20369;-86
2021/08/21 06:02:25;;;;;;;50.20;34.25;;;;;;;;;;1085148;47;20369;-85
2021/08/21 06:03:27;;;;;;;49.83;33.33;;;;;;;;;;1085557;47;20444;-86
2021/08/21 06:04:29;;;;;;;53.80;34.35;;;;;;;;;;1085267;47;20420;-84
2021/08/21 06:05:30;;;;;;;49.13;32.40;;;;;;;;;;1085400;47;20429;-85